sensor_id;sensor_type;location;lat;lon;timestamp;pressure;altitude;pressure_sealevel;temperature;humidity
39197;BME280;42889;51.112;13.772;2022-12-20T00:01:28;99727.28;;;0.07;nan
39197;BME280;42889;51.112;13.772;2022-12-20T00:03:59;99730.06;;;0.21;nan
39197;BME280;42889;51.112;13.772;2022-12-20T00:06:28;99718.59;;;0.20;nan
39197;BME280;42889;51.112;13.772;2022-12-20T00:08:56;99722.09;;;0.21;nan
39197;BME280;42889;51.112;13.772;2022-12-20T00:11:24;99716.81;;;0.21;nan
39197;BME280;42889;51.112;13.772;2022-12-20T00:13:51;99715.03;;;0.21;nan
39197;BME280;42889;51.112;13.772;2022-12-20T00:16:20;99712.31;;;0.23;nan
39197;BME280;42889;51.112;13.772;2022-12-20T00:18:51;99702.91;;;0.17;nan
39197;BME280;42889;51.112;13.772;2022-12-20T00:21:18;99694.16;;;0.15;nan
39197;BME280;42889;51.112;13.772;2022-12-20T00:23:45;99686.19;;;0.17;nan
39197;BME280;42889;51.112;13.772;2022-12-20T00:26:14;99692.38;;;0.16;nan
39197;BME280;42889;51.112;13.772;2022-12-20T00:28:43;99690.44;;;0.19;nan
39197;BME280;42889;51.112;13.772;2022-12-20T00:31:13;99697.66;;;0.16;nan
39197;BME280;42889;51.112;13.772;2022-12-20T00:33:40;99691.16;;;0.23;nan
39197;BME280;42889;51.112;13.772;2022-12-20T00:36:08;99675.88;;;0.28;nan
39197;BME280;42889;51.112;13.772;2022-12-20T00:38:35;99682.97;;;0.28;nan
39197;BME280;42889;51.112;13.772;2022-12-20T00:43:30;99666.53;;;0.21;nan
39197;BME280;42889;51.112;13.772;2022-12-20T00:45:58;99666.75;;;0.16;nan
39197;BME280;42889;51.112;13.772;2022-12-20T00:48:26;99665.00;;;0.33;nan
39197;BME280;42889;51.112;13.772;2022-12-20T00:51:05;99665.59;;;0.22;nan
39197;BME280;42889;51.112;13.772;2022-12-20T00:53:33;99672.09;;;0.32;nan
39197;BME280;42889;51.112;13.772;2022-12-20T00:56:01;99664.69;;;0.23;nan
39197;BME280;42889;51.112;13.772;2022-12-20T00:58:28;99662.94;;;0.22;nan
39197;BME280;42889;51.112;13.772;2022-12-20T01:00:55;99668.59;;;0.32;nan
39197;BME280;42889;51.112;13.772;2022-12-20T01:03:24;99657.03;;;0.34;nan
39197;BME280;42889;51.112;13.772;2022-12-20T01:05:52;99653.66;;;0.31;nan
39197;BME280;42889;51.112;13.772;2022-12-20T01:08:20;99668.59;;;0.32;nan
39197;BME280;42889;51.112;13.772;2022-12-20T01:11:05;99655.59;;;0.44;nan
39197;BME280;42889;51.112;13.772;2022-12-20T01:13:34;99648.50;;;0.45;nan
39197;BME280;42889;51.112;13.772;2022-12-20T01:16:06;99644.16;;;0.60;nan
39197;BME280;42889;51.112;13.772;2022-12-20T01:18:33;99649.03;;;0.67;nan
39197;BME280;42889;51.112;13.772;2022-12-20T01:21:06;99646.31;;;0.69;nan
39197;BME280;42889;51.112;13.772;2022-12-20T01:23:33;99641.16;;;0.82;nan
39197;BME280;42889;51.112;13.772;2022-12-20T01:26:02;99654.34;;;0.83;nan
39197;BME280;42889;51.112;13.772;2022-12-20T01:28:38;99633.41;;;0.78;nan
39197;BME280;42889;51.112;13.772;2022-12-20T01:31:06;99642.81;;;0.84;nan
39197;BME280;42889;51.112;13.772;2022-12-20T01:33:34;99647.16;;;0.85;nan
39197;BME280;42889;51.112;13.772;2022-12-20T01:36:04;99661.78;;;0.92;nan
39197;BME280;42889;51.112;13.772;2022-12-20T01:38:32;99665.81;;;0.99;nan
39197;BME280;42889;51.112;13.772;2022-12-20T01:40:59;99670.66;;;0.91;nan
39197;BME280;42889;51.112;13.772;2022-12-20T01:43:54;99656.41;;;0.94;nan
39197;BME280;42889;51.112;13.772;2022-12-20T01:46:23;99656.41;;;0.94;nan
39197;BME280;42889;51.112;13.772;2022-12-20T01:49:43;99654.41;;;0.97;nan
39197;BME280;42889;51.112;13.772;2022-12-20T01:51:52;99647.56;;;0.93;nan
39197;BME280;42889;51.112;13.772;2022-12-20T01:54:25;99654.00;;;0.89;nan
39197;BME280;42889;51.112;13.772;2022-12-20T01:56:59;99663.91;;;0.86;nan
39197;BME280;42889;51.112;13.772;2022-12-20T01:59:28;99663.31;;;0.96;nan
39197;BME280;42889;51.112;13.772;2022-12-20T02:01:58;99657.41;;;0.91;nan
39197;BME280;42889;51.112;13.772;2022-12-20T02:04:28;99653.75;;;0.94;nan
39197;BME280;42889;51.112;13.772;2022-12-20T02:06:55;99650.66;;;1.01;nan
39197;BME280;42889;51.112;13.772;2022-12-20T02:09:23;99661.69;;;1.10;nan
39197;BME280;42889;51.112;13.772;2022-12-20T02:14:58;99649.81;;;1.01;nan
39197;BME280;42889;51.112;13.772;2022-12-20T02:31:11;99649.66;;;0.72;nan
39197;BME280;42889;51.112;13.772;2022-12-20T02:33:46;99643.16;;;0.78;nan
39197;BME280;42889;51.112;13.772;2022-12-20T02:36:15;99649.81;;;0.85;nan
39197;BME280;42889;51.112;13.772;2022-12-20T02:38:44;99646.31;;;0.85;nan
39197;BME280;42889;51.112;13.772;2022-12-20T02:43:41;99650.06;;;0.81;nan
39197;BME280;42889;51.112;13.772;2022-12-20T02:46:28;99650.16;;;0.79;nan
39197;BME280;42889;51.112;13.772;2022-12-20T02:49:00;99646.81;;;0.75;nan
39197;BME280;42889;51.112;13.772;2022-12-20T02:51:29;99644.41;;;0.71;nan
39197;BME280;42889;51.112;13.772;2022-12-20T02:53:58;99639.31;;;0.68;nan
39197;BME280;42889;51.112;13.772;2022-12-20T02:56:49;99635.09;;;0.64;nan
39197;BME280;42889;51.112;13.772;2022-12-20T02:59:21;99635.28;;;0.61;nan
39197;BME280;42889;51.112;13.772;2022-12-20T03:01:52;99630.06;;;0.59;nan
39197;BME280;42889;51.112;13.772;2022-12-20T03:04:25;99625.94;;;0.53;nan
39197;BME280;42889;51.112;13.772;2022-12-20T03:06:56;99631.25;;;0.53;nan
39197;BME280;42889;51.112;13.772;2022-12-20T03:09:23;99625.44;;;0.47;nan
39197;BME280;42889;51.112;13.772;2022-12-20T03:11:50;99618.44;;;0.46;nan
39197;BME280;42889;51.112;13.772;2022-12-20T03:14:18;99622.78;;;0.47;nan
39197;BME280;42889;51.112;13.772;2022-12-20T03:16:47;99604.75;;;0.38;nan
39197;BME280;42889;51.112;13.772;2022-12-20T03:19:14;99587.50;;;0.46;nan
39197;BME280;42889;51.112;13.772;2022-12-20T03:21:41;99609.41;;;0.50;nan
39197;BME280;42889;51.112;13.772;2022-12-20T03:24:08;99610.91;;;0.54;nan
39197;BME280;42889;51.112;13.772;2022-12-20T03:26:36;99606.31;;;0.58;nan
39197;BME280;42889;51.112;13.772;2022-12-20T03:29:03;99602.47;;;0.63;nan
39197;BME280;42889;51.112;13.772;2022-12-20T03:31:30;99606.66;;;0.67;nan
39197;BME280;42889;51.112;13.772;2022-12-20T03:33:57;99607.31;;;0.71;nan
39197;BME280;42889;51.112;13.772;2022-12-20T03:36:25;99604.28;;;0.78;nan
39197;BME280;42889;51.112;13.772;2022-12-20T03:38:57;99598.03;;;0.79;nan
39197;BME280;42889;51.112;13.772;2022-12-20T03:41:26;99602.22;;;0.84;nan
39197;BME280;42889;51.112;13.772;2022-12-20T03:43:53;99611.53;;;0.91;nan
39197;BME280;42889;51.112;13.772;2022-12-20T03:46:21;99603.56;;;0.91;nan
39197;BME280;42889;51.112;13.772;2022-12-20T03:48:49;99602.53;;;0.93;nan
39197;BME280;42889;51.112;13.772;2022-12-20T03:51:15;99604.31;;;0.93;nan
39197;BME280;42889;51.112;13.772;2022-12-20T03:53:43;99600.66;;;0.95;nan
39197;BME280;42889;51.112;13.772;2022-12-20T03:56:11;99603.13;;;0.98;nan
39197;BME280;42889;51.112;13.772;2022-12-20T03:58:40;99601.31;;;0.99;nan
39197;BME280;42889;51.112;13.772;2022-12-20T04:01:17;99605.63;;;1.01;nan
39197;BME280;42889;51.112;13.772;2022-12-20T04:03:45;99600.31;;;1.01;nan
39197;BME280;42889;51.112;13.772;2022-12-20T04:06:13;99601.06;;;1.03;nan
39197;BME280;42889;51.112;13.772;2022-12-20T04:08:40;99598.25;;;1.07;nan
39197;BME280;42889;51.112;13.772;2022-12-20T04:11:08;99597.56;;;1.03;nan
39197;BME280;42889;51.112;13.772;2022-12-20T04:14:02;99590.47;;;1.03;nan
39197;BME280;42889;51.112;13.772;2022-12-20T04:16:30;99601.66;;;1.09;nan
39197;BME280;42889;51.112;13.772;2022-12-20T04:18:59;99592.44;;;1.16;nan
39197;BME280;42889;51.112;13.772;2022-12-20T04:21:32;99594.50;;;1.11;nan
39197;BME280;42889;51.112;13.772;2022-12-20T04:24:00;99601.31;;;1.15;nan
39197;BME280;42889;51.112;13.772;2022-12-20T04:26:37;99586.09;;;1.18;nan
39197;BME280;42889;51.112;13.772;2022-12-20T04:29:04;99596.78;;;1.17;nan
39197;BME280;42889;51.112;13.772;2022-12-20T04:31:32;99598.66;;;1.15;nan
39197;BME280;42889;51.112;13.772;2022-12-20T04:33:59;99593.28;;;1.16;nan
39197;BME280;42889;51.112;13.772;2022-12-20T04:36:28;99593.56;;;1.12;nan
39197;BME280;42889;51.112;13.772;2022-12-20T04:38:57;99598.41;;;1.19;nan
39197;BME280;42889;51.112;13.772;2022-12-20T04:41:24;99597.16;;;1.11;nan
39197;BME280;42889;51.112;13.772;2022-12-20T04:43:57;99596.09;;;1.13;nan
39197;BME280;42889;51.112;13.772;2022-12-20T04:46:32;99597.53;;;1.19;nan
39197;BME280;42889;51.112;13.772;2022-12-20T04:49:00;99593.34;;;1.15;nan
39197;BME280;42889;51.112;13.772;2022-12-20T04:51:31;99592.75;;;1.10;nan
39197;BME280;42889;51.112;13.772;2022-12-20T04:53:57;99590.22;;;1.08;nan
39197;BME280;42889;51.112;13.772;2022-12-20T04:56:33;99588.75;;;1.18;nan
39197;BME280;42889;51.112;13.772;2022-12-20T04:59:07;99590.06;;;1.11;nan
39197;BME280;42889;51.112;13.772;2022-12-20T05:01:34;99583.53;;;1.17;nan
39197;BME280;42889;51.112;13.772;2022-12-20T05:04:02;99580.09;;;1.15;nan
39197;BME280;42889;51.112;13.772;2022-12-20T05:06:33;99581.47;;;1.22;nan
39197;BME280;42889;51.112;13.772;2022-12-20T05:08:59;99572.47;;;1.24;nan
39197;BME280;42889;51.112;13.772;2022-12-20T05:11:29;99571.63;;;1.24;nan
39197;BME280;42889;51.112;13.772;2022-12-20T05:13:56;99572.84;;;1.18;nan
39197;BME280;42889;51.112;13.772;2022-12-20T05:16:22;99577.28;;;1.18;nan
39197;BME280;42889;51.112;13.772;2022-12-20T05:18:49;99571.88;;;1.19;nan
39197;BME280;42889;51.112;13.772;2022-12-20T05:21:17;99573.78;;;1.17;nan
39197;BME280;42889;51.112;13.772;2022-12-20T05:24:04;99575.97;;;1.25;nan
39197;BME280;42889;51.112;13.772;2022-12-20T05:27:03;99578.88;;;1.20;nan
39197;BME280;42889;51.112;13.772;2022-12-20T05:29:29;99571.88;;;1.19;nan
39197;BME280;42889;51.112;13.772;2022-12-20T05:31:56;99568.88;;;1.25;nan
39197;BME280;42889;51.112;13.772;2022-12-20T05:34:24;99573.09;;;1.14;nan
39197;BME280;42889;51.112;13.772;2022-12-20T05:36:52;99572.56;;;1.23;nan
39197;BME280;42889;51.112;13.772;2022-12-20T05:39:22;99565.63;;;1.20;nan
39197;BME280;42889;51.112;13.772;2022-12-20T05:41:52;99560.16;;;1.23;nan
39197;BME280;42889;51.112;13.772;2022-12-20T05:44:22;99560.28;;;1.22;nan
39197;BME280;42889;51.112;13.772;2022-12-20T05:46:52;99561.28;;;1.19;nan
39197;BME280;42889;51.112;13.772;2022-12-20T05:49:25;99561.38;;;1.18;nan
39197;BME280;42889;51.112;13.772;2022-12-20T05:51:52;99566.50;;;1.21;nan
39197;BME280;42889;51.112;13.772;2022-12-20T05:54:22;99568.13;;;1.23;nan
39197;BME280;42889;51.112;13.772;2022-12-20T05:56:55;99564.53;;;1.24;nan
39197;BME280;42889;51.112;13.772;2022-12-20T05:59:30;99558.84;;;1.30;nan
39197;BME280;42889;51.112;13.772;2022-12-20T06:01:57;99564.09;;;1.32;nan
39197;BME280;42889;51.112;13.772;2022-12-20T06:04:25;99561.81;;;1.40;nan
39197;BME280;42889;51.112;13.772;2022-12-20T06:06:52;99565.34;;;1.41;nan
39197;BME280;42889;51.112;13.772;2022-12-20T06:09:19;99567.88;;;1.42;nan
39197;BME280;42889;51.112;13.772;2022-12-20T06:11:58;99558.31;;;1.40;nan
39197;BME280;42889;51.112;13.772;2022-12-20T06:14:26;99556.69;;;1.37;nan
39197;BME280;42889;51.112;13.772;2022-12-20T06:16:54;99547.72;;;1.40;nan
39197;BME280;42889;51.112;13.772;2022-12-20T06:19:22;99552.28;;;1.38;nan
39197;BME280;42889;51.112;13.772;2022-12-20T06:21:52;99549.63;;;1.38;nan
39197;BME280;42889;51.112;13.772;2022-12-20T06:24:26;99559.00;;;1.43;nan
39197;BME280;42889;51.112;13.772;2022-12-20T06:26:53;99549.63;;;1.38;nan
39197;BME280;42889;51.112;13.772;2022-12-20T06:29:20;99549.53;;;1.39;nan
39197;BME280;42889;51.112;13.772;2022-12-20T06:31:53;99552.34;;;1.36;nan
39197;BME280;42889;51.112;13.772;2022-12-20T06:34:22;99553.50;;;1.32;nan
39197;BME280;42889;51.112;13.772;2022-12-20T06:36:49;99555.94;;;1.35;nan
39197;BME280;42889;51.112;13.772;2022-12-20T06:39:19;99557.00;;;1.33;nan
39197;BME280;42889;51.112;13.772;2022-12-20T06:41:54;99558.50;;;1.37;nan
39197;BME280;42889;51.112;13.772;2022-12-20T06:44:21;99552.72;;;1.30;nan
39197;BME280;42889;51.112;13.772;2022-12-20T06:46:49;99548.44;;;1.27;nan
39197;BME280;42889;51.112;13.772;2022-12-20T06:49:16;99547.50;;;1.28;nan
39197;BME280;42889;51.112;13.772;2022-12-20T06:51:43;99552.81;;;1.28;nan
39197;BME280;42889;51.112;13.772;2022-12-20T06:54:10;99556.41;;;1.27;nan
39197;BME280;42889;51.112;13.772;2022-12-20T06:56:38;99558.28;;;1.25;nan
39197;BME280;42889;51.112;13.772;2022-12-20T06:59:10;99561.97;;;1.23;nan
39197;BME280;42889;51.112;13.772;2022-12-20T07:01:37;99569.34;;;1.18;nan
39197;BME280;42889;51.112;13.772;2022-12-20T07:04:04;99580.78;;;1.18;nan
39197;BME280;42889;51.112;13.772;2022-12-20T07:06:31;99581.38;;;1.23;nan
39197;BME280;42889;51.112;13.772;2022-12-20T07:08:58;99568.22;;;1.22;nan
39197;BME280;42889;51.112;13.772;2022-12-20T07:11:25;99557.69;;;1.20;nan
39197;BME280;42889;51.112;13.772;2022-12-20T07:13:55;99565.84;;;1.17;nan
39197;BME280;42889;51.112;13.772;2022-12-20T07:16:22;99563.84;;;1.21;nan
39197;BME280;42889;51.112;13.772;2022-12-20T07:18:50;99558.91;;;1.15;nan
39197;BME280;42889;51.112;13.772;2022-12-20T07:21:18;99557.09;;;1.15;nan
39197;BME280;42889;51.112;13.772;2022-12-20T07:23:46;99555.81;;;1.22;nan
39197;BME280;42889;51.112;13.772;2022-12-20T07:26:13;99550.84;;;1.32;nan
39197;BME280;42889;51.112;13.772;2022-12-20T07:28:41;99547.50;;;1.28;nan
39197;BME280;42889;51.112;13.772;2022-12-20T07:31:08;99537.84;;;1.27;nan
39197;BME280;42889;51.112;13.772;2022-12-20T07:33:35;99537.91;;;1.26;nan
39197;BME280;42889;51.112;13.772;2022-12-20T07:36:05;99543.50;;;1.21;nan
39197;BME280;42889;51.112;13.772;2022-12-20T07:38:33;99539.06;;;1.22;nan
39197;BME280;42889;51.112;13.772;2022-12-20T07:41:09;99537.91;;;1.26;nan
39197;BME280;42889;51.112;13.772;2022-12-20T07:43:37;99546.75;;;1.26;nan
39197;BME280;42889;51.112;13.772;2022-12-20T07:46:05;99543.91;;;1.29;nan
39197;BME280;42889;51.112;13.772;2022-12-20T07:48:32;99534.34;;;1.27;nan
39197;BME280;42889;51.112;13.772;2022-12-20T07:51:06;99537.28;;;1.37;nan
39197;BME280;42889;51.112;13.772;2022-12-20T07:53:35;99527.34;;;1.40;nan
39197;BME280;42889;51.112;13.772;2022-12-20T07:56:06;99536.25;;;1.39;nan
39197;BME280;42889;51.112;13.772;2022-12-20T07:58:36;99548.31;;;1.45;nan
39197;BME280;42889;51.112;13.772;2022-12-20T08:01:03;99556.06;;;1.48;nan
39197;BME280;42889;51.112;13.772;2022-12-20T08:03:35;99548.56;;;1.40;nan
39197;BME280;42889;51.112;13.772;2022-12-20T08:06:05;99542.91;;;1.46;nan
39197;BME280;42889;51.112;13.772;2022-12-20T08:08:35;99556.34;;;1.43;nan
39197;BME280;42889;51.112;13.772;2022-12-20T08:11:06;99551.06;;;1.43;nan
39197;BME280;42889;51.112;13.772;2022-12-20T08:13:35;99539.75;;;1.40;nan
39197;BME280;42889;51.112;13.772;2022-12-20T08:16:08;99549.16;;;1.45;nan
39197;BME280;42889;51.112;13.772;2022-12-20T08:18:34;99539.88;;;1.38;nan
39197;BME280;42889;51.112;13.772;2022-12-20T08:21:01;99553.03;;;1.40;nan
39197;BME280;42889;51.112;13.772;2022-12-20T08:23:30;99549.31;;;1.42;nan
39197;BME280;42889;51.112;13.772;2022-12-20T08:25:59;99541.38;;;1.42;nan
39197;BME280;42889;51.112;13.772;2022-12-20T08:28:27;99543.44;;;1.37;nan
39197;BME280;42889;51.112;13.772;2022-12-20T08:31:05;99558.22;;;1.41;nan
39197;BME280;42889;51.112;13.772;2022-12-20T08:33:34;99559.19;;;1.40;nan
39197;BME280;42889;51.112;13.772;2022-12-20T08:36:04;99558.13;;;1.43;nan
39197;BME280;42889;51.112;13.772;2022-12-20T08:38:32;99560.88;;;1.41;nan
39197;BME280;42889;51.112;13.772;2022-12-20T08:41:06;99550.47;;;1.38;nan
39197;BME280;42889;51.112;13.772;2022-12-20T08:43:33;99567.31;;;1.37;nan
39197;BME280;42889;51.112;13.772;2022-12-20T08:46:00;99560.13;;;1.39;nan
39197;BME280;42889;51.112;13.772;2022-12-20T08:48:27;99561.06;;;1.38;nan
39197;BME280;42889;51.112;13.772;2022-12-20T08:51:00;99563.78;;;1.37;nan
39197;BME280;42889;51.112;13.772;2022-12-20T08:53:29;99557.63;;;1.36;nan
39197;BME280;42889;51.112;13.772;2022-12-20T08:56:04;99554.91;;;1.38;nan
39197;BME280;42889;51.112;13.772;2022-12-20T08:58:32;99553.41;;;1.48;nan
39197;BME280;42889;51.112;13.772;2022-12-20T09:00:59;99558.16;;;1.57;nan
39197;BME280;42889;51.112;13.772;2022-12-20T09:03:32;99546.16;;;1.66;nan
39197;BME280;42889;51.112;13.772;2022-12-20T09:05:59;99549.47;;;1.69;nan
39197;BME280;42889;51.112;13.772;2022-12-20T09:08:26;99546.16;;;1.66;nan
39197;BME280;42889;51.112;13.772;2022-12-20T09:10:53;99544.53;;;1.63;nan
39197;BME280;42889;51.112;13.772;2022-12-20T09:13:20;99542.34;;;1.70;nan
39197;BME280;42889;51.112;13.772;2022-12-20T09:15:47;99556.88;;;1.78;nan
39197;BME280;42889;51.112;13.772;2022-12-20T09:18:13;99557.84;;;1.77;nan
39197;BME280;42889;51.112;13.772;2022-12-20T09:20:43;99559.81;;;1.74;nan
39197;BME280;42889;51.112;13.772;2022-12-20T09:23:13;99557.16;;;1.74;nan
39197;BME280;42889;51.112;13.772;2022-12-20T09:25:39;99560.75;;;1.73;nan
39197;BME280;42889;51.112;13.772;2022-12-20T09:28:06;99549.59;;;1.82;nan
39197;BME280;42889;51.112;13.772;2022-12-20T09:30:33;99552.41;;;1.79;nan
39197;BME280;42889;51.112;13.772;2022-12-20T09:33:00;99546.09;;;1.81;nan
39197;BME280;42889;51.112;13.772;2022-12-20T09:35:33;99552.81;;;1.87;nan
39197;BME280;42889;51.112;13.772;2022-12-20T09:38:00;99558.31;;;1.98;nan
39197;BME280;42889;51.112;13.772;2022-12-20T09:40:29;99559.91;;;2.01;nan
39197;BME280;42889;51.112;13.772;2022-12-20T09:42:58;99558.19;;;1.85;nan
39197;BME280;42889;51.112;13.772;2022-12-20T09:45:27;99545.13;;;1.97;nan
39197;BME280;42889;51.112;13.772;2022-12-20T09:47:55;99557.16;;;2.17;nan
39197;BME280;42889;51.112;13.772;2022-12-20T09:50:36;99562.19;;;2.21;nan
39197;BME280;42889;51.112;13.772;2022-12-20T09:53:12;99558.03;;;2.17;nan
39197;BME280;42889;51.112;13.772;2022-12-20T09:58:58;99562.59;;;2.15;nan
39197;BME280;42889;51.112;13.772;2022-12-20T10:01:28;99554.59;;;2.29;nan
39197;BME280;42889;51.112;13.772;2022-12-20T10:04:35;99565.44;;;2.26;nan
39197;BME280;42889;51.112;13.772;2022-12-20T10:09:47;99573.81;;;2.47;nan
39197;BME280;42889;51.112;13.772;2022-12-20T10:15:18;99566.00;;;2.31;nan
39197;BME280;42889;51.112;13.772;2022-12-20T10:23:39;99552.81;;;2.16;nan
39197;BME280;42889;51.112;13.772;2022-12-20T10:26:11;99541.72;;;2.09;nan
39197;BME280;42889;51.112;13.772;2022-12-20T10:28:38;99545.69;;;2.02;nan
39197;BME280;42889;51.112;13.772;2022-12-20T10:31:12;99539.53;;;2.01;nan
39197;BME280;42889;51.112;13.772;2022-12-20T10:33:40;99545.22;;;1.95;nan
39197;BME280;42889;51.112;13.772;2022-12-20T10:36:29;99548.94;;;1.93;nan
39197;BME280;42889;51.112;13.772;2022-12-20T10:39:00;99536.69;;;1.90;nan
39197;BME280;42889;51.112;13.772;2022-12-20T10:41:33;99542.56;;;1.81;nan
39197;BME280;42889;51.112;13.772;2022-12-20T10:44:28;99535.09;;;1.88;nan
39197;BME280;42889;51.112;13.772;2022-12-20T10:46:57;99522.84;;;1.85;nan
39197;BME280;42889;51.112;13.772;2022-12-20T10:49:36;99520.03;;;1.88;nan
39197;BME280;42889;51.112;13.772;2022-12-20T10:54:34;99510.25;;;1.89;nan
39197;BME280;42889;51.112;13.772;2022-12-20T10:57:24;99519.66;;;1.94;nan
39197;BME280;42889;51.112;13.772;2022-12-20T11:00:00;99501.81;;;1.96;nan
39197;BME280;42889;51.112;13.772;2022-12-20T11:02:37;99500.50;;;1.89;nan
39197;BME280;42889;51.112;13.772;2022-12-20T11:07:50;99505.13;;;1.85;nan
39197;BME280;42889;51.112;13.772;2022-12-20T11:10:37;99490.91;;;1.87;nan
39197;BME280;42889;51.112;13.772;2022-12-20T11:13:04;99479.63;;;1.97;nan
39197;BME280;42889;51.112;13.772;2022-12-20T11:15:34;99477.91;;;1.96;nan
39197;BME280;42889;51.112;13.772;2022-12-20T11:21:32;99468.16;;;1.97;nan
39197;BME280;42889;51.112;13.772;2022-12-20T11:29:35;99466.81;;;2.45;nan
39197;BME280;42889;51.112;13.772;2022-12-20T11:32:22;99471.94;;;2.75;nan
39197;BME280;42889;51.112;13.772;2022-12-20T11:35:16;99461.81;;;2.68;nan
39197;BME280;42889;51.112;13.772;2022-12-20T11:40:43;99434.53;;;2.78;nan
39197;BME280;42889;51.112;13.772;2022-12-20T11:43:30;99426.84;;;2.74;nan
39197;BME280;42889;51.112;13.772;2022-12-20T11:46:40;99426.78;;;2.48;nan
39197;BME280;42889;51.112;13.772;2022-12-20T11:55:03;99420.81;;;2.18;nan
39197;BME280;42889;51.112;13.772;2022-12-20T11:57:37;99435.50;;;2.23;nan
39197;BME280;42889;51.112;13.772;2022-12-20T12:00:31;99433.41;;;2.14;nan
39197;BME280;42889;51.112;13.772;2022-12-20T12:03:08;99422.75;;;2.01;nan
39197;BME280;42889;51.112;13.772;2022-12-20T12:08:20;99420.59;;;1.94;nan
39197;BME280;42889;51.112;13.772;2022-12-20T12:10:57;99426.94;;;1.91;nan
39197;BME280;42889;51.112;13.772;2022-12-20T12:13:30;99421.16;;;1.84;nan
39197;BME280;42889;51.112;13.772;2022-12-20T12:18:29;99398.53;;;1.79;nan
39197;BME280;42889;51.112;13.772;2022-12-20T12:28:39;99394.28;;;1.62;nan
39197;BME280;42889;51.112;13.772;2022-12-20T12:31:10;99389.81;;;1.48;nan
39197;BME280;42889;51.112;13.772;2022-12-20T12:47:03;99365.47;;;1.70;nan
39197;BME280;42889;51.112;13.772;2022-12-20T12:49:32;99353.94;;;1.71;nan
39197;BME280;42889;51.112;13.772;2022-12-20T12:52:02;99365.38;;;1.72;nan
39197;BME280;42889;51.112;13.772;2022-12-20T12:54:36;99357.44;;;1.72;nan
39197;BME280;42889;51.112;13.772;2022-12-20T12:57:16;99355.41;;;1.75;nan
39197;BME280;42889;51.112;13.772;2022-12-20T12:59:48;99370.59;;;1.73;nan
39197;BME280;42889;51.112;13.772;2022-12-20T13:17:51;99342.25;;;1.74;nan
39197;BME280;42889;51.112;13.772;2022-12-20T13:20:23;99335.13;;;1.74;nan
39197;BME280;42889;51.112;13.772;2022-12-20T13:23:17;99336.94;;;1.74;nan
39197;BME280;42889;51.112;13.772;2022-12-20T13:25:47;99327.09;;;1.76;nan
39197;BME280;42889;51.112;13.772;2022-12-20T13:33:37;99311.09;;;1.63;nan
39197;BME280;42889;51.112;13.772;2022-12-20T13:38:58;99315.94;;;1.56;nan
39197;BME280;42889;51.112;13.772;2022-12-20T13:47:47;99301.56;;;1.46;nan
39197;BME280;42889;51.112;13.772;2022-12-20T13:49:41;99311.16;;;1.49;nan
39197;BME280;42889;51.112;13.772;2022-12-20T13:52:28;99288.13;;;1.49;nan
39197;BME280;42889;51.112;13.772;2022-12-20T13:55:00;99294.34;;;1.48;nan
39197;BME280;42889;51.112;13.772;2022-12-20T13:57:40;99294.06;;;1.53;nan
39197;BME280;42889;51.112;13.772;2022-12-20T14:00:28;99288.75;;;1.53;nan
39197;BME280;42889;51.112;13.772;2022-12-20T14:02:55;99290.38;;;1.55;nan
39197;BME280;42889;51.112;13.772;2022-12-20T14:05:25;99289.13;;;1.61;nan
39197;BME280;42889;51.112;13.772;2022-12-20T14:08:02;99291.69;;;1.63;nan
39197;BME280;42889;51.112;13.772;2022-12-20T14:10:31;99287.03;;;1.66;nan
39197;BME280;42889;51.112;13.772;2022-12-20T14:12:58;99290.44;;;1.68;nan
39197;BME280;42889;51.112;13.772;2022-12-20T14:17:52;99291.84;;;1.74;nan
39197;BME280;42889;51.112;13.772;2022-12-20T14:25:42;99282.53;;;1.81;nan
39197;BME280;42889;51.112;13.772;2022-12-20T14:30:52;99264.28;;;1.76;nan
39197;BME280;42889;51.112;13.772;2022-12-20T14:33:27;99268.09;;;1.85;nan
39197;BME280;42889;51.112;13.772;2022-12-20T14:35:55;99263.31;;;1.77;nan
39197;BME280;42889;51.112;13.772;2022-12-20T14:38:27;99271.38;;;1.76;nan
39197;BME280;42889;51.112;13.772;2022-12-20T14:40:56;99265.88;;;1.79;nan
39197;BME280;42889;51.112;13.772;2022-12-20T14:43:31;99257.56;;;1.71;nan
39197;BME280;42889;51.112;13.772;2022-12-20T14:46:19;99260.00;;;1.74;nan
39197;BME280;42889;51.112;13.772;2022-12-20T14:48:47;99246.19;;;1.69;nan
39197;BME280;42889;51.112;13.772;2022-12-20T14:51:20;99246.47;;;1.64;nan
39197;BME280;42889;51.112;13.772;2022-12-20T14:53:49;99256.25;;;1.64;nan
39197;BME280;42889;51.112;13.772;2022-12-20T14:56:19;99254.66;;;1.61;nan
39197;BME280;42889;51.112;13.772;2022-12-20T14:59:13;99255.41;;;1.63;nan
39197;BME280;42889;51.112;13.772;2022-12-20T15:01:41;99257.19;;;1.63;nan
39197;BME280;42889;51.112;13.772;2022-12-20T15:04:31;99246.00;;;1.72;nan
39197;BME280;42889;51.112;13.772;2022-12-20T15:06:59;99246.28;;;1.67;nan
39197;BME280;42889;51.112;13.772;2022-12-20T15:09:27;99251.19;;;1.73;nan
39197;BME280;42889;51.112;13.772;2022-12-20T15:11:57;99261.81;;;1.73;nan
39197;BME280;42889;51.112;13.772;2022-12-20T15:14:35;99254.59;;;1.75;nan
39197;BME280;42889;51.112;13.772;2022-12-20T15:17:08;99248.66;;;1.72;nan
39197;BME280;42889;51.112;13.772;2022-12-20T15:19:36;99254.38;;;1.66;nan
39197;BME280;42889;51.112;13.772;2022-12-20T15:22:16;99267.31;;;1.70;nan
39197;BME280;42889;51.112;13.772;2022-12-20T15:24:44;99257.47;;;1.72;nan
39197;BME280;42889;51.112;13.772;2022-12-20T15:27:14;99258.06;;;1.63;nan
39197;BME280;42889;51.112;13.772;2022-12-20T15:29:41;99256.16;;;1.65;nan
39197;BME280;42889;51.112;13.772;2022-12-20T15:32:24;99259.41;;;1.56;nan
39197;BME280;42889;51.112;13.772;2022-12-20T15:34:53;99264.19;;;1.64;nan
39197;BME280;42889;51.112;13.772;2022-12-20T15:37:20;99265.38;;;1.60;nan
39197;BME280;42889;51.112;13.772;2022-12-20T15:39:47;99252.81;;;1.49;nan
39197;BME280;42889;51.112;13.772;2022-12-20T15:42:15;99256.81;;;1.69;nan
39197;BME280;42889;51.112;13.772;2022-12-20T15:44:44;99259.75;;;1.64;nan
39197;BME280;42889;51.112;13.772;2022-12-20T15:47:15;99260.06;;;1.60;nan
39197;BME280;42889;51.112;13.772;2022-12-20T15:49:42;99256.00;;;1.54;nan